createdAt,value
2018-07-16T04:15:23.168Z,94.50
2018-07-16T10:46:57.748Z,31.40
2018-07-16T10:49:28.757Z,31.00
2018-07-16T10:51:59.745Z,31.90
2018-07-16T10:54:30.746Z,31.70
2018-07-16T10:57:01.888Z,32.00
2018-07-16T10:59:32.990Z,30.90
2018-07-16T11:02:04.184Z,31.30
2018-07-16T11:04:35.131Z,31.30
2018-07-16T11:07:06.301Z,32.50
2018-07-16T11:09:37.261Z,31.10
2018-07-16T11:12:08.357Z,31.10
2018-07-16T11:14:39.266Z,31.20
2018-07-16T11:17:10.360Z,31.70
2018-07-16T11:19:41.297Z,31.80
2018-07-16T11:22:12.385Z,32.50
2018-07-16T11:24:43.502Z,32.90
2018-07-16T11:27:14.430Z,33.70
2018-07-16T11:29:47.923Z,32.70
2018-07-16T11:32:19.188Z,33.60
2018-07-16T11:34:50.491Z,32.90
2018-07-16T11:37:31.449Z,33.40
2018-07-16T11:40:17.035Z,34.20
2018-07-16T11:42:48.033Z,32.40
2018-07-16T11:45:18.990Z,32.20
2018-07-16T11:47:50.184Z,31.80
2018-07-16T11:50:51.436Z,31.80
2018-07-16T12:09:54.203Z,31.80
2018-07-16T12:12:26.295Z,34.00
2018-07-16T12:15:36.057Z,34.10
2018-07-16T12:18:22.464Z,33.20
2018-07-16T12:21:01.476Z,32.50
2018-07-16T12:30:57.727Z,32.10
2018-07-16T12:33:40.745Z,32.90
2018-07-16T13:00:33.361Z,34.90
2018-07-16T13:03:14.356Z,34.00
2018-07-16T13:15:40.582Z,33.90
2018-07-16T13:18:15.890Z,31.80
2018-07-16T13:21:07.712Z,33.40
2018-07-16T13:23:38.510Z,32.90
2018-07-16T13:26:15.167Z,32.50
2018-07-16T13:28:48.769Z,32.70
2018-07-16T13:31:19.593Z,32.00
2018-07-16T13:34:18.772Z,31.60
2018-07-16T13:37:00.175Z,32.70
2018-07-16T13:39:33.037Z,33.30
2018-07-16T13:42:09.162Z,33.20
2018-07-16T13:44:40.958Z,33.40
2018-07-16T13:47:11.962Z,32.30
2018-07-16T13:49:43.080Z,32.80
2018-07-16T13:52:14.265Z,33.30
2018-07-16T13:54:46.412Z,33.30
2018-07-16T13:57:17.353Z,34.40
2018-07-16T13:59:48.388Z,35.00
2018-07-16T14:02:21.478Z,34.20
2018-07-16T14:04:52.552Z,35.50
2018-07-16T14:07:28.242Z,36.40
2018-07-16T14:09:59.683Z,36.90
2018-07-16T14:12:38.122Z,36.90
2018-07-16T14:18:58.912Z,36.80
2018-07-16T14:21:37.142Z,35.40
2018-07-16T14:24:59.185Z,35.20
2018-07-16T14:27:58.988Z,35.70
2018-07-16T14:31:40.889Z,35.30
2018-07-16T15:17:57.555Z,36.20
2018-07-16T15:20:30.034Z,37.00
2018-07-16T15:23:01.610Z,37.20
2018-07-16T15:25:48.411Z,36.80
2018-07-16T15:28:22.106Z,36.90
2018-07-16T15:34:32.989Z,36.80
2018-07-16T15:38:06.584Z,37.50
2018-07-16T15:40:42.348Z,36.70
2018-07-16T15:43:54.441Z,37.00
2018-07-16T16:02:45.592Z,37.70
2018-07-16T18:38:57.668Z,49.80
2018-07-16T18:41:28.682Z,50.20
2018-07-16T18:44:03.303Z,50.50
2018-07-16T18:46:34.712Z,51.20
2018-07-16T18:49:09.669Z,51.30
2018-07-16T18:51:42.141Z,51.50
2018-07-16T18:54:13.221Z,51.80
2018-07-16T18:56:44.303Z,52.50
2018-07-16T18:59:15.309Z,52.90
2018-07-16T19:01:46.320Z,52.70
2018-07-16T19:04:17.447Z,53.50
2018-07-16T19:06:48.376Z,53.80
2018-07-16T19:09:19.406Z,53.90
2018-07-16T19:11:50.991Z,53.90
2018-07-16T19:14:39.549Z,54.40
2018-07-16T19:17:25.887Z,54.70
2018-07-16T19:19:56.789Z,55.20
2018-07-16T19:22:28.056Z,55.60
2018-07-16T19:25:01.625Z,55.80
2018-07-16T19:27:33.955Z,56.30
2018-07-16T19:30:05.971Z,56.80
2018-07-16T19:32:38.604Z,57.30
2018-07-16T19:35:09.770Z,57.60
2018-07-16T19:37:41.074Z,58.00
2018-07-16T19:40:12.384Z,58.80
2018-07-16T19:43:03.777Z,59.00
2018-07-16T19:45:35.472Z,59.60
2018-07-16T19:48:06.698Z,60.20
2018-07-16T19:50:37.962Z,60.30
2018-07-16T19:53:09.064Z,60.90
2018-07-16T19:55:40.033Z,61.40
2018-07-16T19:58:11.110Z,62.40
2018-07-16T20:00:42.207Z,62.70
2018-07-16T20:03:13.111Z,63.00
2018-07-16T20:05:45.245Z,63.10
2018-07-16T20:08:16.410Z,63.80
2018-07-16T20:10:50.855Z,65.20
2018-07-16T20:26:27.291Z,66.70
2018-07-16T20:28:58.376Z,67.90
2018-07-16T20:31:29.408Z,68.50
2018-07-16T20:34:00.443Z,69.10
2018-07-16T20:36:31.744Z,70.40
2018-07-16T20:39:02.830Z,70.40
2018-07-16T20:41:34.381Z,70.90
2018-07-16T20:44:06.066Z,71.10
2018-07-16T20:46:37.021Z,71.30
2018-07-16T20:49:11.302Z,71.70
2018-07-16T20:51:42.317Z,72.00
2018-07-16T20:54:13.385Z,72.60
2018-07-16T20:56:44.579Z,73.10
2018-07-16T20:59:18.046Z,73.50
2018-07-16T21:02:12.558Z,73.60
2018-07-16T21:04:44.725Z,74.80
2018-07-16T21:07:16.466Z,75.00
2018-07-16T21:09:47.520Z,75.40
2018-07-16T21:12:20.888Z,75.60
2018-07-16T21:14:54.387Z,76.20
2018-07-16T21:17:25.421Z,77.00
2018-07-16T21:19:56.441Z,77.50
2018-07-16T21:22:27.401Z,77.00
2018-07-16T21:24:58.599Z,76.50
2018-07-16T21:27:29.570Z,77.20
2018-07-16T21:30:00.585Z,77.60
2018-07-16T21:32:32.494Z,77.50
2018-07-16T21:35:03.756Z,78.10
2018-07-16T21:37:34.763Z,79.00
2018-07-16T21:40:05.687Z,79.30
2018-07-16T21:42:37.009Z,79.40
2018-07-16T21:45:08.287Z,79.90
2018-07-16T21:47:39.452Z,80.60
2018-07-16T21:50:10.529Z,81.20
2018-07-16T21:52:41.521Z,81.30
2018-07-16T21:55:12.620Z,81.50
2018-07-16T21:57:43.701Z,81.90
2018-07-16T22:00:30.087Z,82.60
2018-07-16T22:03:02.825Z,82.90
2018-07-16T22:05:37.872Z,82.90
2018-07-16T22:08:10.285Z,83.50
2018-07-16T22:10:41.702Z,83.70
2018-07-16T22:13:13.957Z,84.30
2018-07-16T22:15:45.208Z,84.70
2018-07-16T22:18:16.592Z,85.10
2018-07-16T22:20:48.229Z,85.10
2018-07-16T22:23:19.384Z,85.70
2018-07-16T22:25:51.767Z,85.80
2018-07-16T22:28:23.241Z,85.90
2018-07-16T22:30:55.556Z,86.10
2018-07-16T22:33:27.662Z,86.00
2018-07-16T22:36:06.345Z,86.10
2018-07-16T22:38:38.636Z,86.30
2018-07-16T22:44:32.749Z,87.20
2018-07-16T22:47:23.862Z,87.80
2018-07-16T22:50:11.721Z,88.40
2018-07-16T23:04:07.448Z,88.50
2018-07-16T23:07:12.921Z,88.70
2018-07-16T23:09:54.231Z,90.10
2018-07-16T23:12:25.310Z,90.20
2018-07-16T23:14:56.425Z,90.40
2018-07-16T23:17:27.457Z,90.40
2018-07-16T23:20:06.685Z,90.40
2018-07-16T23:32:38.311Z,90.60
2018-07-16T23:35:10.507Z,90.70
2018-07-16T23:38:08.078Z,91.10
2018-07-16T23:40:50.115Z,91.10
2018-07-16T23:46:32.936Z,91.10
